sensor_id;sensor_type;location;lat;lon;timestamp;temperature;humidity
19966;DHT22;10144;50.874;4.762;2022-08-01T00:01:17;22.00;99.90
19966;DHT22;10144;50.874;4.762;2022-08-01T00:03:45;22.00;99.90
19966;DHT22;10144;50.874;4.762;2022-08-01T00:06:14;22.00;99.90
19966;DHT22;10144;50.874;4.762;2022-08-01T00:08:41;22.00;99.90
19966;DHT22;10144;50.874;4.762;2022-08-01T00:11:21;21.90;99.90
19966;DHT22;10144;50.874;4.762;2022-08-01T00:13:46;22.00;99.90
19966;DHT22;10144;50.874;4.762;2022-08-01T00:16:13;22.00;99.90
19966;DHT22;10144;50.874;4.762;2022-08-01T00:18:42;22.00;99.90
19966;DHT22;10144;50.874;4.762;2022-08-01T00:21:08;22.00;99.90
19966;DHT22;10144;50.874;4.762;2022-08-01T00:23:38;22.00;99.90
19966;DHT22;10144;50.874;4.762;2022-08-01T00:26:07;22.00;99.90
19966;DHT22;10144;50.874;4.762;2022-08-01T00:28:33;22.00;99.90
19966;DHT22;10144;50.874;4.762;2022-08-01T00:30:59;22.00;99.90
19966;DHT22;10144;50.874;4.762;2022-08-01T00:33:54;22.00;99.90
19966;DHT22;10144;50.874;4.762;2022-08-01T00:36:28;22.00;99.90
19966;DHT22;10144;50.874;4.762;2022-08-01T00:39:09;21.90;99.90
19966;DHT22;10144;50.874;4.762;2022-08-01T00:41:53;21.90;99.90
19966;DHT22;10144;50.874;4.762;2022-08-01T00:44:31;21.80;99.90
19966;DHT22;10144;50.874;4.762;2022-08-01T00:47:09;21.80;99.90
19966;DHT22;10144;50.874;4.762;2022-08-01T00:50:03;21.80;99.90
19966;DHT22;10144;50.874;4.762;2022-08-01T00:52:46;21.80;99.90
19966;DHT22;10144;50.874;4.762;2022-08-01T00:55:15;21.80;99.90
19966;DHT22;10144;50.874;4.762;2022-08-01T00:57:50;21.70;99.90
19966;DHT22;10144;50.874;4.762;2022-08-01T01:00:19;21.70;99.90
19966;DHT22;10144;50.874;4.762;2022-08-01T01:02:47;21.80;99.90
19966;DHT22;10144;50.874;4.762;2022-08-01T01:05:14;21.70;99.90
19966;DHT22;10144;50.874;4.762;2022-08-01T01:07:59;21.80;99.90
19966;DHT22;10144;50.874;4.762;2022-08-01T01:10:43;21.80;99.90
19966;DHT22;10144;50.874;4.762;2022-08-01T01:14:09;21.80;99.90
19966;DHT22;10144;50.874;4.762;2022-08-01T01:16:22;21.80;99.90
19966;DHT22;10144;50.874;4.762;2022-08-01T01:18:54;21.80;99.90
19966;DHT22;10144;50.874;4.762;2022-08-01T01:21:35;21.80;99.90
19966;DHT22;10144;50.874;4.762;2022-08-01T01:24:28;21.70;99.90
19966;DHT22;10144;50.874;4.762;2022-08-01T01:29:51;21.70;99.90
19966;DHT22;10144;50.874;4.762;2022-08-01T01:32:46;21.70;99.90
19966;DHT22;10144;50.874;4.762;2022-08-01T01:35:34;21.60;99.90
19966;DHT22;10144;50.874;4.762;2022-08-01T01:40:54;21.50;99.90
19966;DHT22;10144;50.874;4.762;2022-08-01T01:43:23;21.60;99.90
19966;DHT22;10144;50.874;4.762;2022-08-01T01:45:53;21.60;99.90
19966;DHT22;10144;50.874;4.762;2022-08-01T01:48:38;21.60;99.90
19966;DHT22;10144;50.874;4.762;2022-08-01T01:51:07;21.60;99.90
19966;DHT22;10144;50.874;4.762;2022-08-01T01:53:39;21.60;99.90
19966;DHT22;10144;50.874;4.762;2022-08-01T01:56:06;21.70;99.90
19966;DHT22;10144;50.874;4.762;2022-08-01T01:58:34;21.60;99.90
19966;DHT22;10144;50.874;4.762;2022-08-01T02:01:06;21.50;99.90
19966;DHT22;10144;50.874;4.762;2022-08-01T02:03:42;21.50;99.90
19966;DHT22;10144;50.874;4.762;2022-08-01T02:06:18;21.50;99.90
19966;DHT22;10144;50.874;4.762;2022-08-01T02:08:47;21.50;99.90
19966;DHT22;10144;50.874;4.762;2022-08-01T02:11:16;21.60;99.90
19966;DHT22;10144;50.874;4.762;2022-08-01T02:13:57;21.70;99.90
19966;DHT22;10144;50.874;4.762;2022-08-01T02:16:29;21.70;99.90
19966;DHT22;10144;50.874;4.762;2022-08-01T02:18:58;21.70;99.90
19966;DHT22;10144;50.874;4.762;2022-08-01T02:21:40;21.80;99.90
19966;DHT22;10144;50.874;4.762;2022-08-01T02:27:31;21.80;99.90
19966;DHT22;10144;50.874;4.762;2022-08-01T02:30:03;21.70;99.90
19966;DHT22;10144;50.874;4.762;2022-08-01T02:32:39;21.70;99.90
19966;DHT22;10144;50.874;4.762;2022-08-01T02:35:11;21.70;99.90
19966;DHT22;10144;50.874;4.762;2022-08-01T02:37:45;21.60;99.90
19966;DHT22;10144;50.874;4.762;2022-08-01T02:40:16;21.70;99.90
19966;DHT22;10144;50.874;4.762;2022-08-01T02:43:15;21.60;99.90
19966;DHT22;10144;50.874;4.762;2022-08-01T02:49:08;21.60;99.90
19966;DHT22;10144;50.874;4.762;2022-08-01T02:54:55;21.70;99.90
19966;DHT22;10144;50.874;4.762;2022-08-01T02:57:23;21.70;99.90
19966;DHT22;10144;50.874;4.762;2022-08-01T03:00:27;21.60;99.90
19966;DHT22;10144;50.874;4.762;2022-08-01T03:02:59;21.70;99.90
19966;DHT22;10144;50.874;4.762;2022-08-01T03:05:39;21.60;99.90
19966;DHT22;10144;50.874;4.762;2022-08-01T03:08:24;21.60;99.90
19966;DHT22;10144;50.874;4.762;2022-08-01T03:11:04;21.60;99.90
19966;DHT22;10144;50.874;4.762;2022-08-01T03:13:33;21.70;99.90
19966;DHT22;10144;50.874;4.762;2022-08-01T03:16:00;21.60;99.90
19966;DHT22;10144;50.874;4.762;2022-08-01T03:18:37;21.70;99.90
19966;DHT22;10144;50.874;4.762;2022-08-01T03:21:09;21.70;99.90
19966;DHT22;10144;50.874;4.762;2022-08-01T03:23:42;21.60;99.90
19966;DHT22;10144;50.874;4.762;2022-08-01T03:26:13;21.70;99.90
19966;DHT22;10144;50.874;4.762;2022-08-01T03:28:55;21.60;99.90
19966;DHT22;10144;50.874;4.762;2022-08-01T03:31:35;21.60;99.90
19966;DHT22;10144;50.874;4.762;2022-08-01T03:34:06;21.50;99.90
19966;DHT22;10144;50.874;4.762;2022-08-01T03:36:52;21.40;99.90
19966;DHT22;10144;50.874;4.762;2022-08-01T03:39:55;21.60;99.90
19966;DHT22;10144;50.874;4.762;2022-08-01T03:42:36;21.50;99.90
19966;DHT22;10144;50.874;4.762;2022-08-01T03:45:31;21.40;99.90
19966;DHT22;10144;50.874;4.762;2022-08-01T03:48:12;21.40;99.90
19966;DHT22;10144;50.874;4.762;2022-08-01T03:51:08;21.30;99.90
19966;DHT22;10144;50.874;4.762;2022-08-01T03:53:44;21.40;99.90
19966;DHT22;10144;50.874;4.762;2022-08-01T03:56:18;21.30;99.90
19966;DHT22;10144;50.874;4.762;2022-08-01T03:58:51;21.30;99.90
19966;DHT22;10144;50.874;4.762;2022-08-01T04:01:23;21.20;99.90
19966;DHT22;10144;50.874;4.762;2022-08-01T04:03:53;21.20;99.90
19966;DHT22;10144;50.874;4.762;2022-08-01T04:06:20;21.20;99.90
19966;DHT22;10144;50.874;4.762;2022-08-01T04:08:48;21.20;99.90
19966;DHT22;10144;50.874;4.762;2022-08-01T04:11:24;21.10;99.90
19966;DHT22;10144;50.874;4.762;2022-08-01T04:13:53;21.10;99.90
19966;DHT22;10144;50.874;4.762;2022-08-01T04:16:23;21.10;99.90
19966;DHT22;10144;50.874;4.762;2022-08-01T04:18:51;21.10;99.90
19966;DHT22;10144;50.874;4.762;2022-08-01T04:21:26;21.10;99.90
19966;DHT22;10144;50.874;4.762;2022-08-01T04:24:12;21.00;99.90
19966;DHT22;10144;50.874;4.762;2022-08-01T04:26:39;21.00;99.90
19966;DHT22;10144;50.874;4.762;2022-08-01T04:29:08;21.10;99.90
19966;DHT22;10144;50.874;4.762;2022-08-01T04:31:39;21.00;99.90
19966;DHT22;10144;50.874;4.762;2022-08-01T04:34:16;21.00;99.90
19966;DHT22;10144;50.874;4.762;2022-08-01T04:36:45;21.00;99.90
19966;DHT22;10144;50.874;4.762;2022-08-01T04:39:15;21.00;99.90
19966;DHT22;10144;50.874;4.762;2022-08-01T04:41:47;20.90;99.90
19966;DHT22;10144;50.874;4.762;2022-08-01T04:44:14;20.80;99.90
19966;DHT22;10144;50.874;4.762;2022-08-01T04:46:44;20.80;99.90
19966;DHT22;10144;50.874;4.762;2022-08-01T04:49:13;20.80;99.90
19966;DHT22;10144;50.874;4.762;2022-08-01T04:52:03;20.70;99.90
19966;DHT22;10144;50.874;4.762;2022-08-01T04:54:35;20.80;99.90
19966;DHT22;10144;50.874;4.762;2022-08-01T04:57:05;20.70;99.90
19966;DHT22;10144;50.874;4.762;2022-08-01T04:59:36;20.80;99.90
19966;DHT22;10144;50.874;4.762;2022-08-01T05:02:23;20.70;99.90
19966;DHT22;10144;50.874;4.762;2022-08-01T05:05:20;20.60;99.90
19966;DHT22;10144;50.874;4.762;2022-08-01T05:07:49;20.60;99.90
19966;DHT22;10144;50.874;4.762;2022-08-01T05:10:33;20.50;99.90
19966;DHT22;10144;50.874;4.762;2022-08-01T05:13:01;20.50;99.90
19966;DHT22;10144;50.874;4.762;2022-08-01T05:15:35;20.50;99.90
19966;DHT22;10144;50.874;4.762;2022-08-01T05:18:12;20.60;99.90
19966;DHT22;10144;50.874;4.762;2022-08-01T05:20:49;20.60;99.90
19966;DHT22;10144;50.874;4.762;2022-08-01T05:23:18;20.60;99.90
19966;DHT22;10144;50.874;4.762;2022-08-01T05:25:52;20.60;99.90
19966;DHT22;10144;50.874;4.762;2022-08-01T05:28:20;20.60;99.90
19966;DHT22;10144;50.874;4.762;2022-08-01T05:31:18;20.60;99.90
19966;DHT22;10144;50.874;4.762;2022-08-01T05:33:45;20.60;99.90
19966;DHT22;10144;50.874;4.762;2022-08-01T05:36:14;20.60;99.90
19966;DHT22;10144;50.874;4.762;2022-08-01T05:38:47;20.70;99.90
19966;DHT22;10144;50.874;4.762;2022-08-01T05:41:19;20.80;99.90
19966;DHT22;10144;50.874;4.762;2022-08-01T05:43:53;20.80;99.90
19966;DHT22;10144;50.874;4.762;2022-08-01T05:49:49;20.80;99.90
19966;DHT22;10144;50.874;4.762;2022-08-01T05:52:41;20.70;99.90
19966;DHT22;10144;50.874;4.762;2022-08-01T05:55:18;20.70;99.90
19966;DHT22;10144;50.874;4.762;2022-08-01T06:01:05;20.80;99.90
19966;DHT22;10144;50.874;4.762;2022-08-01T06:03:36;21.00;99.90
19966;DHT22;10144;50.874;4.762;2022-08-01T06:06:03;21.00;99.90
19966;DHT22;10144;50.874;4.762;2022-08-01T06:08:31;21.00;99.90
19966;DHT22;10144;50.874;4.762;2022-08-01T06:11:00;21.00;99.90
19966;DHT22;10144;50.874;4.762;2022-08-01T06:13:31;21.00;99.90
19966;DHT22;10144;50.874;4.762;2022-08-01T06:19:31;21.20;99.90
19966;DHT22;10144;50.874;4.762;2022-08-01T06:22:31;21.30;99.90
19966;DHT22;10144;50.874;4.762;2022-08-01T06:28:19;21.40;99.90
19966;DHT22;10144;50.874;4.762;2022-08-01T06:34:07;21.70;99.90
19966;DHT22;10144;50.874;4.762;2022-08-01T06:39:55;21.90;99.90
19966;DHT22;10144;50.874;4.762;2022-08-01T06:45:43;21.80;99.90
19966;DHT22;10144;50.874;4.762;2022-08-01T06:51:31;22.20;99.90
19966;DHT22;10144;50.874;4.762;2022-08-01T06:53:57;22.20;99.90
19966;DHT22;10144;50.874;4.762;2022-08-01T06:56:22;22.40;99.90
19966;DHT22;10144;50.874;4.762;2022-08-01T06:58:50;22.60;99.90
19966;DHT22;10144;50.874;4.762;2022-08-01T07:01:16;22.60;99.90
19966;DHT22;10144;50.874;4.762;2022-08-01T07:03:43;22.60;99.90
19966;DHT22;10144;50.874;4.762;2022-08-01T07:06:09;22.60;99.90
19966;DHT22;10144;50.874;4.762;2022-08-01T07:08:35;22.70;99.90
19966;DHT22;10144;50.874;4.762;2022-08-01T07:11:00;22.70;99.90
19966;DHT22;10144;50.874;4.762;2022-08-01T07:13:28;22.70;99.90
19966;DHT22;10144;50.874;4.762;2022-08-01T07:15:59;22.80;99.90
19966;DHT22;10144;50.874;4.762;2022-08-01T07:18:25;22.90;99.90
19966;DHT22;10144;50.874;4.762;2022-08-01T07:20:50;22.90;99.90
19966;DHT22;10144;50.874;4.762;2022-08-01T07:23:16;22.80;99.90
19966;DHT22;10144;50.874;4.762;2022-08-01T07:25:43;22.90;99.90
19966;DHT22;10144;50.874;4.762;2022-08-01T07:28:09;23.00;99.90
19966;DHT22;10144;50.874;4.762;2022-08-01T07:30:35;23.00;99.90
19966;DHT22;10144;50.874;4.762;2022-08-01T07:33:01;23.10;99.90
19966;DHT22;10144;50.874;4.762;2022-08-01T07:35:27;23.20;99.90
19966;DHT22;10144;50.874;4.762;2022-08-01T07:37:53;23.20;99.90
19966;DHT22;10144;50.874;4.762;2022-08-01T07:40:18;23.10;99.90
19966;DHT22;10144;50.874;4.762;2022-08-01T07:42:44;23.00;99.90
19966;DHT22;10144;50.874;4.762;2022-08-01T07:45:13;23.00;99.90
19966;DHT22;10144;50.874;4.762;2022-08-01T07:47:39;22.90;99.90
19966;DHT22;10144;50.874;4.762;2022-08-01T07:50:06;22.90;99.90
19966;DHT22;10144;50.874;4.762;2022-08-01T07:52:32;22.80;99.90
19966;DHT22;10144;50.874;4.762;2022-08-01T07:54:58;22.90;99.90
19966;DHT22;10144;50.874;4.762;2022-08-01T07:57:24;23.00;99.90
19966;DHT22;10144;50.874;4.762;2022-08-01T07:59:50;23.20;99.90
19966;DHT22;10144;50.874;4.762;2022-08-01T08:02:16;23.30;99.90
19966;DHT22;10144;50.874;4.762;2022-08-01T08:04:41;23.40;99.90
19966;DHT22;10144;50.874;4.762;2022-08-01T08:07:07;23.30;99.90
19966;DHT22;10144;50.874;4.762;2022-08-01T08:09:33;23.30;99.90
19966;DHT22;10144;50.874;4.762;2022-08-01T08:11:58;23.20;99.90
19966;DHT22;10144;50.874;4.762;2022-08-01T08:14:24;23.20;99.90
19966;DHT22;10144;50.874;4.762;2022-08-01T08:16:51;23.30;99.90
19966;DHT22;10144;50.874;4.762;2022-08-01T08:19:16;23.20;99.90
19966;DHT22;10144;50.874;4.762;2022-08-01T08:21:43;23.10;99.90
19966;DHT22;10144;50.874;4.762;2022-08-01T08:24:09;23.10;99.90
19966;DHT22;10144;50.874;4.762;2022-08-01T08:26:47;23.20;99.90
19966;DHT22;10144;50.874;4.762;2022-08-01T08:29:13;23.40;99.90
19966;DHT22;10144;50.874;4.762;2022-08-01T08:31:39;23.60;99.90
19966;DHT22;10144;50.874;4.762;2022-08-01T08:34:05;24.00;99.90
19966;DHT22;10144;50.874;4.762;2022-08-01T08:36:31;24.40;99.90
19966;DHT22;10144;50.874;4.762;2022-08-01T08:38:56;24.70;99.90
19966;DHT22;10144;50.874;4.762;2022-08-01T08:41:22;25.20;99.90
19966;DHT22;10144;50.874;4.762;2022-08-01T08:43:48;25.30;99.90
19966;DHT22;10144;50.874;4.762;2022-08-01T08:46:14;25.70;99.90
19966;DHT22;10144;50.874;4.762;2022-08-01T08:48:40;25.80;99.90
19966;DHT22;10144;50.874;4.762;2022-08-01T08:51:08;25.70;99.90
19966;DHT22;10144;50.874;4.762;2022-08-01T08:53:35;25.80;99.90
19966;DHT22;10144;50.874;4.762;2022-08-01T08:56:02;25.80;99.90
19966;DHT22;10144;50.874;4.762;2022-08-01T08:58:30;25.70;99.90
19966;DHT22;10144;50.874;4.762;2022-08-01T09:00:59;26.00;99.90
19966;DHT22;10144;50.874;4.762;2022-08-01T09:03:25;26.10;99.90
19966;DHT22;10144;50.874;4.762;2022-08-01T09:05:50;26.30;99.90
19966;DHT22;10144;50.874;4.762;2022-08-01T09:08:16;26.50;99.90
19966;DHT22;10144;50.874;4.762;2022-08-01T09:10:41;26.40;99.90
19966;DHT22;10144;50.874;4.762;2022-08-01T09:13:11;26.30;99.90
19966;DHT22;10144;50.874;4.762;2022-08-01T09:15:50;26.10;99.90
19966;DHT22;10144;50.874;4.762;2022-08-01T09:18:35;26.00;99.90
19966;DHT22;10144;50.874;4.762;2022-08-01T09:23:43;25.70;99.90
19966;DHT22;10144;50.874;4.762;2022-08-01T09:26:10;25.60;99.90
19966;DHT22;10144;50.874;4.762;2022-08-01T09:28:37;25.70;99.90
19966;DHT22;10144;50.874;4.762;2022-08-01T09:31:15;25.90;99.90
19966;DHT22;10144;50.874;4.762;2022-08-01T09:36:16;26.40;99.90
19966;DHT22;10144;50.874;4.762;2022-08-01T09:38:43;26.50;99.90
19966;DHT22;10144;50.874;4.762;2022-08-01T09:41:08;26.40;99.90
19966;DHT22;10144;50.874;4.762;2022-08-01T09:43:36;26.50;99.90
19966;DHT22;10144;50.874;4.762;2022-08-01T09:46:10;26.50;99.90
19966;DHT22;10144;50.874;4.762;2022-08-01T09:48:37;26.70;99.90
19966;DHT22;10144;50.874;4.762;2022-08-01T09:51:05;26.60;99.90
19966;DHT22;10144;50.874;4.762;2022-08-01T09:54:00;26.60;99.90
19966;DHT22;10144;50.874;4.762;2022-08-01T09:56:38;26.80;99.90
19966;DHT22;10144;50.874;4.762;2022-08-01T09:59:06;27.20;99.90
19966;DHT22;10144;50.874;4.762;2022-08-01T10:01:46;27.60;99.90
19966;DHT22;10144;50.874;4.762;2022-08-01T10:06:39;28.70;99.90
19966;DHT22;10144;50.874;4.762;2022-08-01T10:09:05;28.50;99.90
19966;DHT22;10144;50.874;4.762;2022-08-01T10:11:32;28.30;99.90
19966;DHT22;10144;50.874;4.762;2022-08-01T10:13:59;27.90;99.90
19966;DHT22;10144;50.874;4.762;2022-08-01T10:16:26;28.10;99.90
19966;DHT22;10144;50.874;4.762;2022-08-01T10:18:54;28.80;99.90
19966;DHT22;10144;50.874;4.762;2022-08-01T10:21:20;29.30;99.90
19966;DHT22;10144;50.874;4.762;2022-08-01T10:23:49;29.50;99.90
19966;DHT22;10144;50.874;4.762;2022-08-01T10:26:16;29.70;99.90
19966;DHT22;10144;50.874;4.762;2022-08-01T10:28:44;30.00;99.90
19966;DHT22;10144;50.874;4.762;2022-08-01T10:31:14;29.90;99.90
19966;DHT22;10144;50.874;4.762;2022-08-01T10:33:42;30.50;99.90
19966;DHT22;10144;50.874;4.762;2022-08-01T10:36:08;31.00;99.90
19966;DHT22;10144;50.874;4.762;2022-08-01T10:38:34;31.10;99.90
19966;DHT22;10144;50.874;4.762;2022-08-01T10:41:03;30.60;99.90
19966;DHT22;10144;50.874;4.762;2022-08-01T10:43:28;30.60;99.90
19966;DHT22;10144;50.874;4.762;2022-08-01T10:45:55;31.00;99.90
19966;DHT22;10144;50.874;4.762;2022-08-01T10:48:43;31.30;99.90
19966;DHT22;10144;50.874;4.762;2022-08-01T10:51:10;31.10;99.90
19966;DHT22;10144;50.874;4.762;2022-08-01T10:53:36;31.20;99.90
19966;DHT22;10144;50.874;4.762;2022-08-01T10:56:03;31.40;99.90
19966;DHT22;10144;50.874;4.762;2022-08-01T10:58:34;31.70;99.90
19966;DHT22;10144;50.874;4.762;2022-08-01T11:07:08;30.60;99.90
19966;DHT22;10144;50.874;4.762;2022-08-01T11:09:44;30.40;99.90
19966;DHT22;10144;50.874;4.762;2022-08-01T11:12:17;30.40;99.90
19966;DHT22;10144;50.874;4.762;2022-08-01T11:17:46;30.30;99.90
19966;DHT22;10144;50.874;4.762;2022-08-01T11:20:27;30.30;99.90
19966;DHT22;10144;50.874;4.762;2022-08-01T11:28:22;30.10;99.90
19966;DHT22;10144;50.874;4.762;2022-08-01T11:33:47;30.00;99.90
19966;DHT22;10144;50.874;4.762;2022-08-01T11:38:47;29.80;99.90
19966;DHT22;10144;50.874;4.762;2022-08-01T11:44:00;30.30;99.90
19966;DHT22;10144;50.874;4.762;2022-08-01T11:49:27;30.70;99.90
19966;DHT22;10144;50.874;4.762;2022-08-01T11:54:31;30.70;99.90
19966;DHT22;10144;50.874;4.762;2022-08-01T11:57:00;30.50;99.90
19966;DHT22;10144;50.874;4.762;2022-08-01T11:59:26;30.70;99.90
19966;DHT22;10144;50.874;4.762;2022-08-01T12:01:53;30.80;99.90
19966;DHT22;10144;50.874;4.762;2022-08-01T12:04:19;31.10;99.90
19966;DHT22;10144;50.874;4.762;2022-08-01T12:06:45;31.10;99.90
19966;DHT22;10144;50.874;4.762;2022-08-01T12:09:20;30.90;99.90
19966;DHT22;10144;50.874;4.762;2022-08-01T12:11:47;30.80;99.90
19966;DHT22;10144;50.874;4.762;2022-08-01T12:14:20;31.10;99.90
19966;DHT22;10144;50.874;4.762;2022-08-01T12:16:52;31.30;99.90
19966;DHT22;10144;50.874;4.762;2022-08-01T12:19:23;31.30;99.90
19966;DHT22;10144;50.874;4.762;2022-08-01T12:22:08;31.30;99.90
19966;DHT22;10144;50.874;4.762;2022-08-01T12:24:35;31.50;99.90
19966;DHT22;10144;50.874;4.762;2022-08-01T12:27:02;31.60;99.90
19966;DHT22;10144;50.874;4.762;2022-08-01T12:29:36;31.70;99.90
19966;DHT22;10144;50.874;4.762;2022-08-01T12:32:03;31.70;99.90
19966;DHT22;10144;50.874;4.762;2022-08-01T12:34:29;31.80;99.90
19966;DHT22;10144;50.874;4.762;2022-08-01T12:37:01;31.70;99.90
19966;DHT22;10144;50.874;4.762;2022-08-01T12:39:34;31.70;99.90
19966;DHT22;10144;50.874;4.762;2022-08-01T12:42:01;31.40;99.90
19966;DHT22;10144;50.874;4.762;2022-08-01T12:44:28;31.20;99.90
19966;DHT22;10144;50.874;4.762;2022-08-01T12:46:55;31.30;99.90
19966;DHT22;10144;50.874;4.762;2022-08-01T12:49:22;31.20;99.90
19966;DHT22;10144;50.874;4.762;2022-08-01T12:51:49;31.10;99.90
19966;DHT22;10144;50.874;4.762;2022-08-01T12:54:14;30.90;99.90
19966;DHT22;10144;50.874;4.762;2022-08-01T12:56:40;30.80;99.90
19966;DHT22;10144;50.874;4.762;2022-08-01T12:59:22;30.50;99.90
19966;DHT22;10144;50.874;4.762;2022-08-01T13:01:53;30.00;99.90
19966;DHT22;10144;50.874;4.762;2022-08-01T13:04:20;29.60;99.90
19966;DHT22;10144;50.874;4.762;2022-08-01T13:06:46;29.30;99.90
19966;DHT22;10144;50.874;4.762;2022-08-01T13:09:13;28.90;99.90
19966;DHT22;10144;50.874;4.762;2022-08-01T13:11:40;28.90;99.90
19966;DHT22;10144;50.874;4.762;2022-08-01T13:14:06;29.30;99.90
19966;DHT22;10144;50.874;4.762;2022-08-01T13:16:32;29.50;99.90
19966;DHT22;10144;50.874;4.762;2022-08-01T13:19:10;29.70;99.90
19966;DHT22;10144;50.874;4.762;2022-08-01T13:21:36;29.80;99.90
19966;DHT22;10144;50.874;4.762;2022-08-01T13:29:38;30.50;99.90
19966;DHT22;10144;50.874;4.762;2022-08-01T13:32:17;30.40;99.90
19966;DHT22;10144;50.874;4.762;2022-08-01T13:34:43;30.20;99.90
19966;DHT22;10144;50.874;4.762;2022-08-01T13:37:10;29.80;99.90
19966;DHT22;10144;50.874;4.762;2022-08-01T13:39:36;29.70;99.90
19966;DHT22;10144;50.874;4.762;2022-08-01T13:42:11;29.70;99.90
19966;DHT22;10144;50.874;4.762;2022-08-01T13:44:37;29.60;99.90
19966;DHT22;10144;50.874;4.762;2022-08-01T13:47:04;29.60;99.90
19966;DHT22;10144;50.874;4.762;2022-08-01T13:49:30;29.40;99.90
19966;DHT22;10144;50.874;4.762;2022-08-01T13:51:56;29.40;99.90
19966;DHT22;10144;50.874;4.762;2022-08-01T13:54:21;29.30;99.90
19966;DHT22;10144;50.874;4.762;2022-08-01T13:56:49;29.20;99.90
19966;DHT22;10144;50.874;4.762;2022-08-01T13:59:14;29.40;99.90
19966;DHT22;10144;50.874;4.762;2022-08-01T14:01:40;29.50;99.90
19966;DHT22;10144;50.874;4.762;2022-08-01T14:04:06;29.30;99.90
19966;DHT22;10144;50.874;4.762;2022-08-01T14:06:32;29.20;99.90
19966;DHT22;10144;50.874;4.762;2022-08-01T14:08:57;28.90;99.90
19966;DHT22;10144;50.874;4.762;2022-08-01T14:11:23;28.70;99.90
19966;DHT22;10144;50.874;4.762;2022-08-01T14:13:49;28.70;99.90
19966;DHT22;10144;50.874;4.762;2022-08-01T14:16:15;28.50;99.90
19966;DHT22;10144;50.874;4.762;2022-08-01T14:18:41;28.50;99.90
19966;DHT22;10144;50.874;4.762;2022-08-01T14:21:07;28.40;99.90
19966;DHT22;10144;50.874;4.762;2022-08-01T14:23:32;28.20;99.90
19966;DHT22;10144;50.874;4.762;2022-08-01T14:25:59;28.00;99.90
19966;DHT22;10144;50.874;4.762;2022-08-01T14:28:26;27.90;99.90
19966;DHT22;10144;50.874;4.762;2022-08-01T14:30:53;27.60;99.90
19966;DHT22;10144;50.874;4.762;2022-08-01T14:33:21;27.50;99.90
19966;DHT22;10144;50.874;4.762;2022-08-01T14:35:47;27.50;99.90
19966;DHT22;10144;50.874;4.762;2022-08-01T14:38:13;27.60;99.90
19966;DHT22;10144;50.874;4.762;2022-08-01T14:40:38;27.70;99.90
19966;DHT22;10144;50.874;4.762;2022-08-01T14:43:06;27.60;99.90
19966;DHT22;10144;50.874;4.762;2022-08-01T14:45:31;27.50;99.90
19966;DHT22;10144;50.874;4.762;2022-08-01T14:47:58;27.40;99.90
19966;DHT22;10144;50.874;4.762;2022-08-01T14:50:24;27.50;99.90
19966;DHT22;10144;50.874;4.762;2022-08-01T14:52:52;27.60;99.90
19966;DHT22;10144;50.874;4.762;2022-08-01T14:55:18;27.50;99.90
19966;DHT22;10144;50.874;4.762;2022-08-01T14:57:46;27.40;99.90
19966;DHT22;10144;50.874;4.762;2022-08-01T15:00:12;27.40;99.90
19966;DHT22;10144;50.874;4.762;2022-08-01T15:02:39;27.40;99.90
19966;DHT22;10144;50.874;4.762;2022-08-01T15:05:06;27.50;99.90
19966;DHT22;10144;50.874;4.762;2022-08-01T15:07:32;27.50;99.90
19966;DHT22;10144;50.874;4.762;2022-08-01T15:09:58;27.50;99.90
19966;DHT22;10144;50.874;4.762;2022-08-01T15:12:23;27.70;99.90
19966;DHT22;10144;50.874;4.762;2022-08-01T15:14:49;27.60;99.90
19966;DHT22;10144;50.874;4.762;2022-08-01T15:17:20;27.60;99.90
19966;DHT22;10144;50.874;4.762;2022-08-01T15:19:47;27.60;99.90
19966;DHT22;10144;50.874;4.762;2022-08-01T15:22:14;27.50;99.90
19966;DHT22;10144;50.874;4.762;2022-08-01T15:24:40;27.40;99.90
19966;DHT22;10144;50.874;4.762;2022-08-01T15:27:06;27.60;99.90
19966;DHT22;10144;50.874;4.762;2022-08-01T15:29:32;27.60;99.90
19966;DHT22;10144;50.874;4.762;2022-08-01T15:31:58;27.60;99.90
19966;DHT22;10144;50.874;4.762;2022-08-01T15:34:24;27.60;99.90
19966;DHT22;10144;50.874;4.762;2022-08-01T15:36:50;27.60;99.90
19966;DHT22;10144;50.874;4.762;2022-08-01T15:39:16;27.60;99.90
19966;DHT22;10144;50.874;4.762;2022-08-01T15:41:42;27.60;99.90
19966;DHT22;10144;50.874;4.762;2022-08-01T15:44:08;27.70;99.90
19966;DHT22;10144;50.874;4.762;2022-08-01T15:46:34;27.60;99.90
19966;DHT22;10144;50.874;4.762;2022-08-01T15:49:04;27.50;99.90
19966;DHT22;10144;50.874;4.762;2022-08-01T15:51:30;27.60;99.90
19966;DHT22;10144;50.874;4.762;2022-08-01T15:53:57;27.40;99.90
19966;DHT22;10144;50.874;4.762;2022-08-01T15:56:23;27.40;99.90
19966;DHT22;10144;50.874;4.762;2022-08-01T15:58:50;27.50;99.90
19966;DHT22;10144;50.874;4.762;2022-08-01T16:01:16;27.40;99.90
19966;DHT22;10144;50.874;4.762;2022-08-01T16:03:41;27.30;99.90
19966;DHT22;10144;50.874;4.762;2022-08-01T16:06:07;27.20;99.90
19966;DHT22;10144;50.874;4.762;2022-08-01T16:08:33;27.10;99.90
19966;DHT22;10144;50.874;4.762;2022-08-01T16:10:59;27.20;99.90
19966;DHT22;10144;50.874;4.762;2022-08-01T16:13:24;27.20;99.90
19966;DHT22;10144;50.874;4.762;2022-08-01T16:15:50;27.30;99.90
19966;DHT22;10144;50.874;4.762;2022-08-01T16:18:16;27.30;99.90
19966;DHT22;10144;50.874;4.762;2022-08-01T16:20:42;27.20;99.90
19966;DHT22;10144;50.874;4.762;2022-08-01T16:23:08;27.10;99.90
19966;DHT22;10144;50.874;4.762;2022-08-01T16:25:34;27.10;99.90
19966;DHT22;10144;50.874;4.762;2022-08-01T16:28:00;27.10;99.90
19966;DHT22;10144;50.874;4.762;2022-08-01T16:30:26;27.10;99.90
19966;DHT22;10144;50.874;4.762;2022-08-01T16:32:52;27.00;99.90
19966;DHT22;10144;50.874;4.762;2022-08-01T16:35:18;26.90;99.90
19966;DHT22;10144;50.874;4.762;2022-08-01T16:37:44;26.90;99.90
19966;DHT22;10144;50.874;4.762;2022-08-01T16:40:09;26.90;99.90
19966;DHT22;10144;50.874;4.762;2022-08-01T16:42:35;26.90;99.90
19966;DHT22;10144;50.874;4.762;2022-08-01T16:45:01;26.90;99.90
19966;DHT22;10144;50.874;4.762;2022-08-01T16:47:27;27.00;99.90
19966;DHT22;10144;50.874;4.762;2022-08-01T16:49:53;27.00;99.90
19966;DHT22;10144;50.874;4.762;2022-08-01T16:52:19;27.00;99.90
19966;DHT22;10144;50.874;4.762;2022-08-01T16:54:45;26.80;99.90
19966;DHT22;10144;50.874;4.762;2022-08-01T16:57:11;26.90;99.90
19966;DHT22;10144;50.874;4.762;2022-08-01T16:59:37;26.80;99.90
19966;DHT22;10144;50.874;4.762;2022-08-01T17:02:03;26.70;99.90
19966;DHT22;10144;50.874;4.762;2022-08-01T17:04:29;26.60;99.90
19966;DHT22;10144;50.874;4.762;2022-08-01T17:06:55;26.60;99.90
19966;DHT22;10144;50.874;4.762;2022-08-01T17:09:21;26.60;99.90
19966;DHT22;10144;50.874;4.762;2022-08-01T17:11:47;26.70;99.90
19966;DHT22;10144;50.874;4.762;2022-08-01T17:14:14;26.60;99.90